createdAt,value
2023-05-11T00:02:05.331Z,101184.96
2023-05-11T00:04:53.939Z,101185.05
2023-05-11T00:07:23.208Z,101187.98
2023-05-11T00:09:51.206Z,101187.02
2023-05-11T00:12:39.277Z,101188.64
2023-05-11T00:15:10.791Z,101187.83
2023-05-11T00:18:23.655Z,101187.39
2023-05-11T00:21:02.483Z,101189.95
2023-05-11T00:24:22.008Z,101188.79
2023-05-11T00:27:13.611Z,101192.59
2023-05-11T00:29:43.196Z,101190.66
2023-05-11T00:32:11.976Z,101188.05
2023-05-11T00:34:41.473Z,101193.86
2023-05-11T00:37:08.699Z,101190.97
2023-05-11T00:39:39.850Z,101198.42
2023-05-11T00:42:26.701Z,101196.87
2023-05-11T00:44:56.165Z,101195.13
2023-05-11T00:47:24.837Z,101196.44
2023-05-11T00:50:12.263Z,101199.32
2023-05-11T00:52:41.179Z,101196.63
2023-05-11T00:55:09.769Z,101196.50
2023-05-11T00:57:41.575Z,101196.58
2023-05-11T01:00:09.837Z,101196.64
2023-05-11T01:02:42.404Z,101194.41
2023-05-11T01:05:11.937Z,101191.59
2023-05-11T01:08:17.995Z,101191.11
2023-05-11T01:11:38.065Z,101187.63
2023-05-11T01:14:10.062Z,101190.52
2023-05-11T01:16:40.491Z,101186.55
2023-05-11T01:19:15.053Z,101183.30
2023-05-11T01:21:43.612Z,101184.13
2023-05-11T01:24:49.519Z,101185.55
2023-05-11T01:27:58.641Z,101183.19
2023-05-11T01:30:40.252Z,101186.23
2023-05-11T01:33:27.338Z,101184.80
2023-05-11T01:35:55.774Z,101191.38
2023-05-11T01:38:24.264Z,101186.55
2023-05-11T01:41:16.206Z,101187.89
2023-05-11T01:43:48.278Z,101186.30
2023-05-11T01:46:26.806Z,101185.27
2023-05-11T01:48:56.601Z,101186.41
2023-05-11T01:51:28.864Z,101187.63
2023-05-11T01:53:57.492Z,101180.14
2023-05-11T01:56:28.709Z,101184.78
2023-05-11T01:58:56.998Z,101183.06
2023-05-11T02:01:24.988Z,101185.86
2023-05-11T02:03:52.217Z,101191.18
2023-05-11T02:06:20.845Z,101192.23
2023-05-11T02:08:48.052Z,101187.03
2023-05-11T02:11:15.563Z,101182.60
2023-05-11T02:13:44.983Z,101182.11
2023-05-11T02:16:15.069Z,101178.48
2023-05-11T02:18:42.266Z,101180.09
2023-05-11T02:21:10.365Z,101188.71
2023-05-11T02:23:38.703Z,101187.61
2023-05-11T02:26:06.546Z,101186.23
2023-05-11T02:28:36.102Z,101184.48
2023-05-11T02:31:07.942Z,101185.98
2023-05-11T02:33:39.565Z,101181.13
2023-05-11T02:36:08.172Z,101180.39
2023-05-11T02:38:37.017Z,101185.57
2023-05-11T02:41:12.021Z,101186.74
2023-05-11T02:43:44.239Z,101184.47
2023-05-11T02:46:23.140Z,101188.45
2023-05-11T02:48:55.342Z,101195.75
2023-05-11T02:51:27.745Z,101196.42
2023-05-11T02:53:57.826Z,101197.84
2023-05-11T02:56:27.222Z,101199.15
2023-05-11T02:58:54.609Z,101198.00
2023-05-11T03:01:24.740Z,101203.88
2023-05-11T03:04:06.164Z,101199.64
2023-05-11T03:06:35.561Z,101195.45
2023-05-11T03:09:09.339Z,101198.34
2023-05-11T03:11:57.401Z,101199.89
2023-05-11T03:14:24.598Z,101202.09
2023-05-11T03:16:57.408Z,101204.56
2023-05-11T03:19:27.685Z,101202.78
2023-05-11T03:21:55.781Z,101202.41
2023-05-11T03:24:28.355Z,101200.61
2023-05-11T03:26:56.683Z,101206.41
2023-05-11T03:29:44.840Z,101200.82
2023-05-11T03:32:14.728Z,101200.22
2023-05-11T03:35:24.239Z,101196.42
2023-05-11T03:38:00.453Z,101201.13
2023-05-11T03:40:32.080Z,101201.89
2023-05-11T03:43:19.588Z,101198.00
2023-05-11T03:45:50.038Z,101202.19
2023-05-11T03:48:22.500Z,101201.45
2023-05-11T03:50:53.445Z,101209.50
2023-05-11T03:53:21.187Z,101204.51
2023-05-11T03:55:50.285Z,101200.39
2023-05-11T03:58:18.312Z,101203.03
2023-05-11T04:00:45.602Z,101208.15
2023-05-11T04:03:13.774Z,101209.53
2023-05-11T04:05:44.403Z,101214.13
2023-05-11T04:08:13.254Z,101214.07
2023-05-11T04:10:43.402Z,101211.74
2023-05-11T04:13:16.084Z,101209.03
2023-05-11T04:15:45.166Z,101214.81
2023-05-11T04:18:12.865Z,101214.08
2023-05-11T04:20:42.297Z,101214.56
2023-05-11T04:24:01.531Z,101218.61
2023-05-11T04:26:32.860Z,101217.23
2023-05-11T04:29:00.569Z,101215.34
2023-05-11T04:31:29.872Z,101216.76
2023-05-11T04:33:58.933Z,101216.17
2023-05-11T04:36:30.224Z,101212.02
2023-05-11T04:39:17.515Z,101210.46
2023-05-11T04:41:45.778Z,101207.84
2023-05-11T04:44:13.053Z,101209.50
2023-05-11T04:46:40.945Z,101216.10
2023-05-11T04:49:13.176Z,101218.79
2023-05-11T04:51:56.669Z,101218.52
2023-05-11T04:54:24.990Z,101214.67
2023-05-11T04:57:17.031Z,101221.64
2023-05-11T04:59:47.165Z,101222.77
2023-05-11T05:02:15.915Z,101218.36
2023-05-11T05:04:45.931Z,101219.14
2023-05-11T05:07:44.414Z,101218.83
2023-05-11T05:10:33.821Z,101219.91
2023-05-11T05:13:37.482Z,101224.17
2023-05-11T05:16:40.165Z,101221.58
2023-05-11T05:19:11.712Z,101215.95
2023-05-11T05:21:40.228Z,101214.04
2023-05-11T05:24:12.584Z,101214.76
2023-05-11T05:27:24.844Z,101210.48
2023-05-11T05:30:00.396Z,101215.63
2023-05-11T05:32:51.206Z,101220.21
2023-05-11T05:35:47.176Z,101217.01
2023-05-11T05:38:16.176Z,101209.66
2023-05-11T05:40:47.319Z,101210.69
2023-05-11T05:43:18.357Z,101209.98
2023-05-11T05:45:45.925Z,101214.04
2023-05-11T05:48:16.316Z,101212.92
2023-05-11T05:51:06.227Z,101212.83
2023-05-11T05:53:59.573Z,101207.37
2023-05-11T05:56:34.419Z,101213.84
2023-05-11T05:59:23.151Z,101211.55
2023-05-11T06:01:56.485Z,101212.96
2023-05-11T06:04:25.705Z,101212.05
2023-05-11T06:07:05.366Z,101208.27
2023-05-11T06:09:34.351Z,101212.54
2023-05-11T06:12:04.187Z,101209.77
2023-05-11T06:14:32.968Z,101207.58
2023-05-11T06:17:06.160Z,101204.87
2023-05-11T06:19:35.849Z,101206.41
2023-05-11T06:22:09.120Z,101203.83
2023-05-11T06:24:40.163Z,101205.93
2023-05-11T06:27:07.868Z,101204.46
2023-05-11T06:29:39.555Z,101205.27
2023-05-11T06:32:09.208Z,101203.30
2023-05-11T06:34:36.332Z,101201.72
2023-05-11T06:37:05.020Z,101203.88
2023-05-11T06:39:39.330Z,101200.55
2023-05-11T06:42:08.523Z,101197.05
2023-05-11T06:44:35.633Z,101200.83
2023-05-11T06:47:10.025Z,101196.40
2023-05-11T06:49:38.305Z,101193.77
2023-05-11T06:52:05.911Z,101190.52
2023-05-11T06:54:33.588Z,101191.01
2023-05-11T06:57:03.165Z,101190.77
2023-05-11T06:59:32.592Z,101193.89
2023-05-11T07:02:01.689Z,101191.98
2023-05-11T07:04:29.845Z,101189.88
2023-05-11T07:06:57.488Z,101194.13
2023-05-11T07:09:25.082Z,101191.38
2023-05-11T07:11:52.638Z,101196.30
2023-05-11T07:14:19.712Z,101192.38
2023-05-11T07:16:53.598Z,101193.33
2023-05-11T07:19:24.321Z,101185.36
2023-05-11T07:21:52.414Z,101187.02
2023-05-11T07:24:20.589Z,101181.80
2023-05-11T07:26:49.717Z,101182.19
2023-05-11T07:29:19.708Z,101187.34
2023-05-11T07:31:49.676Z,101187.16
2023-05-11T07:34:18.888Z,101188.12
2023-05-11T07:36:47.084Z,101190.98
2023-05-11T07:39:17.859Z,101196.58
2023-05-11T07:41:52.081Z,101198.42
2023-05-11T07:44:19.688Z,101201.26
2023-05-11T07:46:48.320Z,101198.19
2023-05-11T07:49:20.824Z,101200.16
2023-05-11T07:51:59.944Z,101191.52
2023-05-11T07:54:27.716Z,101188.21
2023-05-11T07:56:55.131Z,101187.34
2023-05-11T07:59:22.265Z,101186.25
2023-05-11T08:01:50.633Z,101185.98
2023-05-11T08:04:18.703Z,101188.30
2023-05-11T08:06:47.857Z,101186.77
2023-05-11T08:09:16.462Z,101188.48
2023-05-11T08:11:44.084Z,101192.30
2023-05-11T08:14:13.024Z,101194.95
2023-05-11T08:16:40.687Z,101196.61
2023-05-11T08:19:10.729Z,101195.75
2023-05-11T08:21:38.159Z,101192.23
2023-05-11T08:24:05.569Z,101189.31
2023-05-11T08:26:39.316Z,101184.40
2023-05-11T08:29:07.849Z,101176.16
2023-05-11T08:31:42.063Z,101173.05
2023-05-11T08:34:18.688Z,101172.41
2023-05-11T08:36:50.647Z,101177.92
2023-05-11T08:39:33.234Z,101185.55
2023-05-11T08:42:09.408Z,101189.15
2023-05-11T08:44:38.168Z,101184.80
2023-05-11T08:49:41.365Z,101183.20
2023-05-11T08:52:10.892Z,101188.68
2023-05-11T08:54:54.141Z,101186.77
2023-05-11T08:57:28.156Z,101194.14
2023-05-11T08:59:55.173Z,101198.73
2023-05-11T09:02:23.870Z,101196.14
2023-05-11T09:04:52.065Z,101194.66
2023-05-11T09:07:22.777Z,101193.73
2023-05-11T09:09:49.788Z,101191.41
2023-05-11T09:12:19.168Z,101185.91
2023-05-11T09:14:51.351Z,101184.45
2023-05-11T09:17:21.370Z,101180.59
2023-05-11T09:20:03.693Z,101175.07
2023-05-11T09:22:36.635Z,101176.63
2023-05-11T09:25:06.405Z,101182.12
2023-05-11T09:27:43.607Z,101179.92
2023-05-11T09:30:28.101Z,101182.13
2023-05-11T09:33:00.862Z,101181.06
2023-05-11T09:35:34.843Z,101179.42
2023-05-11T09:38:05.031Z,101180.67
2023-05-11T09:40:39.553Z,101177.98
2023-05-11T09:43:19.624Z,101181.20
2023-05-11T09:45:50.208Z,101174.73
2023-05-11T09:48:25.467Z,101176.61
2023-05-11T09:51:07.407Z,101178.30
2023-05-11T09:53:45.878Z,101175.29
2023-05-11T09:56:15.683Z,101171.33
2023-05-11T09:58:51.423Z,101171.06
2023-05-11T10:01:29.104Z,101167.38
2023-05-11T10:04:20.487Z,101165.94
2023-05-11T10:06:52.634Z,101162.83
2023-05-11T10:09:45.944Z,101161.77
2023-05-11T10:12:14.795Z,101161.42
2023-05-11T10:14:42.208Z,101163.05
2023-05-11T10:17:10.156Z,101164.57
2023-05-11T10:19:38.902Z,101169.95
2023-05-11T10:22:07.023Z,101172.79
2023-05-11T10:24:35.504Z,101167.99
2023-05-11T10:27:03.567Z,101173.44
2023-05-11T10:29:31.907Z,101171.88
2023-05-11T10:32:00.690Z,101172.12
2023-05-11T10:34:31.211Z,101174.36
2023-05-11T10:37:08.979Z,101173.67
2023-05-11T10:39:37.883Z,101174.98
2023-05-11T10:42:44.432Z,101170.97
2023-05-11T10:45:15.525Z,101178.35
2023-05-11T10:48:23.976Z,101174.86
2023-05-11T10:50:51.886Z,101174.73
2023-05-11T10:53:31.522Z,101170.25
2023-05-11T10:56:44.654Z,101175.92
2023-05-11T10:59:22.155Z,101176.27
2023-05-11T11:01:54.376Z,101180.85
2023-05-11T11:04:22.778Z,101180.40
2023-05-11T11:07:04.510Z,101176.25
2023-05-11T11:09:56.041Z,101172.10
2023-05-11T11:12:27.380Z,101170.91
2023-05-11T11:14:55.964Z,101176.33
2023-05-11T11:17:31.619Z,101175.17
2023-05-11T11:20:03.609Z,101175.59
2023-05-11T11:22:48.921Z,101174.39
2023-05-11T11:25:53.955Z,101172.23
2023-05-11T11:28:21.574Z,101174.55
2023-05-11T11:30:48.969Z,101176.31
2023-05-11T11:33:25.792Z,101179.48
2023-05-11T11:35:55.775Z,101183.78
2023-05-11T11:38:25.721Z,101181.90
2023-05-11T11:40:54.432Z,101180.33
2023-05-11T11:43:24.161Z,101176.76
2023-05-11T11:46:13.186Z,101171.48
2023-05-11T11:48:46.235Z,101166.89
2023-05-11T11:51:13.507Z,101168.09
2023-05-11T11:53:54.778Z,101162.46
2023-05-11T11:56:21.676Z,101156.64
2023-05-11T11:58:52.869Z,101159.66
2023-05-11T12:01:27.193Z,101157.56
2023-05-11T12:04:26.680Z,101153.45
2023-05-11T12:06:58.992Z,101151.21
2023-05-11T12:09:29.454Z,101151.61
2023-05-11T12:11:57.574Z,101151.83
2023-05-11T12:14:29.259Z,101145.39
2023-05-11T12:17:01.268Z,101148.11
2023-05-11T12:19:28.939Z,101148.54
2023-05-11T12:21:56.742Z,101145.79
2023-05-11T12:24:24.576Z,101148.39
2023-05-11T12:26:56.514Z,101151.33
2023-05-11T12:29:23.940Z,101148.71
2023-05-11T12:31:51.742Z,101149.67
2023-05-11T12:34:22.346Z,101153.16
2023-05-11T12:36:53.582Z,101152.38
2023-05-11T12:39:24.023Z,101153.55
2023-05-11T12:41:52.794Z,101157.77
2023-05-11T12:44:21.089Z,101158.92
2023-05-11T12:46:51.445Z,101160.98
2023-05-11T12:49:25.842Z,101155.70
2023-05-11T12:52:07.395Z,101159.13
2023-05-11T12:54:41.257Z,101158.27
2023-05-11T12:57:40.730Z,101157.77
2023-05-11T13:00:15.786Z,101157.77
2023-05-11T13:02:53.485Z,101153.65
2023-05-11T13:05:25.741Z,101157.02
2023-05-11T13:08:05.280Z,101156.30
2023-05-11T13:10:34.651Z,101154.52
2023-05-11T13:13:03.613Z,101155.59
2023-05-11T13:15:33.115Z,101156.82
2023-05-11T13:18:03.522Z,101160.89
2023-05-11T13:20:33.366Z,101159.11
2023-05-11T13:23:13.762Z,101158.42
2023-05-11T13:26:00.374Z,101153.64
2023-05-11T13:28:28.077Z,101160.05
2023-05-11T13:31:01.816Z,101155.95
2023-05-11T13:33:29.538Z,101152.02
2023-05-11T13:35:58.719Z,101153.95
2023-05-11T13:38:30.019Z,101157.66
2023-05-11T13:40:57.727Z,101159.60
2023-05-11T13:43:26.732Z,101157.96
2023-05-11T13:45:56.723Z,101162.56
2023-05-11T13:48:24.508Z,101157.21
2023-05-11T13:50:53.079Z,101158.60
2023-05-11T13:53:20.948Z,101161.23
2023-05-11T13:55:48.950Z,101161.03
2023-05-11T13:58:17.729Z,101159.22
2023-05-11T14:00:56.453Z,101159.92
2023-05-11T14:03:37.218Z,101157.03
2023-05-11T14:06:04.810Z,101157.71
2023-05-11T14:08:32.638Z,101157.33
2023-05-11T14:11:02.294Z,101156.26
2023-05-11T14:13:30.385Z,101155.56
2023-05-11T14:15:59.233Z,101154.15
2023-05-11T14:18:27.484Z,101150.98
2023-05-11T14:20:56.570Z,101152.13
2023-05-11T14:23:34.350Z,101155.41
2023-05-11T14:26:07.897Z,101149.95
2023-05-11T14:28:38.706Z,101148.27
2023-05-11T14:31:08.249Z,101148.02
2023-05-11T14:33:37.080Z,101149.02
2023-05-11T14:36:05.269Z,101151.20
2023-05-11T14:38:32.907Z,101147.90
2023-05-11T14:41:03.346Z,101150.98
2023-05-11T14:43:32.546Z,101149.07
2023-05-11T14:46:00.444Z,101148.95
2023-05-11T14:48:32.775Z,101147.06
2023-05-11T14:51:00.450Z,101146.18
2023-05-11T14:53:28.929Z,101144.92
2023-05-11T14:55:56.464Z,101147.95
2023-05-11T14:58:24.058Z,101146.48
2023-05-11T15:00:52.130Z,101148.58
2023-05-11T15:03:21.091Z,101150.52
2023-05-11T15:05:48.661Z,101148.54
2023-05-11T15:08:29.177Z,101149.60
2023-05-11T15:10:59.051Z,101152.80
2023-05-11T15:13:30.431Z,101149.60
2023-05-11T15:16:01.403Z,101149.96
2023-05-11T15:18:30.996Z,101151.58
2023-05-11T15:20:58.623Z,101145.92
2023-05-11T15:23:28.466Z,101147.90
2023-05-11T15:25:58.026Z,101147.78
2023-05-11T15:28:25.990Z,101149.59
2023-05-11T15:30:57.209Z,101148.94
2023-05-11T15:33:24.537Z,101145.80
2023-05-11T15:35:58.239Z,101150.12
2023-05-11T15:38:32.015Z,101151.23
2023-05-11T15:40:59.910Z,101156.63
2023-05-11T15:43:43.377Z,101156.88
2023-05-11T15:46:13.312Z,101158.52
2023-05-11T15:48:42.199Z,101160.52
2023-05-11T15:51:09.493Z,101164.27
2023-05-11T15:53:52.189Z,101161.81
2023-05-11T15:56:52.407Z,101167.71
2023-05-11T15:59:22.560Z,101164.90
2023-05-11T16:02:17.336Z,101167.93
2023-05-11T16:04:55.108Z,101168.67
2023-05-11T16:07:32.721Z,101167.10
2023-05-11T16:10:18.492Z,101170.50
2023-05-11T16:12:51.668Z,101168.58
2023-05-11T16:15:20.085Z,101172.69
2023-05-11T16:17:56.564Z,101174.67
2023-05-11T16:21:04.939Z,101173.48
2023-05-11T16:23:37.595Z,101177.24
2023-05-11T16:26:29.039Z,101175.67
2023-05-11T16:28:57.929Z,101176.58
2023-05-11T16:31:26.323Z,101177.13
2023-05-11T16:33:57.721Z,101176.61
2023-05-11T16:36:25.702Z,101177.37
2023-05-11T16:38:53.400Z,101179.70
2023-05-11T16:41:39.606Z,101182.03
2023-05-11T16:44:15.163Z,101182.59
2023-05-11T16:46:43.415Z,101185.09
2023-05-11T16:49:12.825Z,101189.73
2023-05-11T16:51:43.930Z,101191.91
2023-05-11T16:54:12.613Z,101189.77
2023-05-11T16:56:40.759Z,101192.27
2023-05-11T16:59:09.725Z,101191.23
2023-05-11T17:01:38.684Z,101198.00
2023-05-11T17:04:06.432Z,101201.23
2023-05-11T17:06:34.967Z,101196.83
2023-05-11T17:09:02.980Z,101200.04
2023-05-11T17:11:32.010Z,101204.67
2023-05-11T17:14:01.187Z,101209.67
2023-05-11T17:16:44.277Z,101208.63
2023-05-11T17:19:14.937Z,101212.55
2023-05-11T17:21:48.521Z,101212.76
2023-05-11T17:24:18.497Z,101213.67
2023-05-11T17:26:48.534Z,101214.93
2023-05-11T17:29:26.223Z,101216.36
2023-05-11T17:31:55.995Z,101220.46
2023-05-11T17:34:28.790Z,101224.91
2023-05-11T17:36:57.112Z,101230.42
2023-05-11T17:39:27.507Z,101228.13
2023-05-11T17:41:55.953Z,101231.16
2023-05-11T17:44:28.367Z,101232.77
2023-05-11T17:46:57.305Z,101232.95
2023-05-11T17:49:25.514Z,101236.69
2023-05-11T17:51:55.758Z,101237.05
2023-05-11T17:54:23.884Z,101243.09
2023-05-11T17:56:55.259Z,101241.32
2023-05-11T17:59:23.431Z,101247.35
2023-05-11T18:01:58.539Z,101250.19
2023-05-11T18:04:36.484Z,101249.66
2023-05-11T18:07:20.419Z,101251.44
2023-05-11T18:09:47.816Z,101253.75
2023-05-11T18:12:20.436Z,101254.45
2023-05-11T18:14:50.722Z,101254.81
2023-05-11T18:17:19.971Z,101256.05
2023-05-11T18:19:48.519Z,101256.58
2023-05-11T18:22:18.427Z,101257.27
2023-05-11T18:24:46.429Z,101252.66
2023-05-11T18:27:25.541Z,101255.15
2023-05-11T18:29:54.845Z,101257.27
2023-05-11T18:32:25.425Z,101258.34
2023-05-11T18:34:55.849Z,101263.84
2023-05-11T18:37:24.130Z,101266.31
2023-05-11T18:39:55.587Z,101261.70
2023-05-11T18:42:25.102Z,101266.84
2023-05-11T18:44:55.404Z,101265.60
2023-05-11T18:47:30.905Z,101265.06
2023-05-11T18:50:01.022Z,101260.98
2023-05-11T18:52:29.205Z,101260.10
2023-05-11T18:54:58.725Z,101260.27
2023-05-11T18:57:27.001Z,101262.58
2023-05-11T18:59:55.170Z,101267.17
2023-05-11T19:02:23.656Z,101267.35
2023-05-11T19:04:59.545Z,101266.10
2023-05-11T19:07:28.165Z,101268.58
2023-05-11T19:09:57.444Z,101270.52
2023-05-11T19:12:27.585Z,101272.98
2023-05-11T19:14:55.840Z,101275.80
2023-05-11T19:17:25.177Z,101277.20
2023-05-11T19:19:57.559Z,101280.73
2023-05-11T19:22:25.309Z,101277.69
2023-05-11T19:24:53.372Z,101278.38
2023-05-11T19:27:24.649Z,101284.02
2023-05-11T19:30:15.608Z,101282.59
2023-05-11T19:32:53.355Z,101283.44
2023-05-11T19:35:23.007Z,101280.91
2023-05-11T19:37:52.749Z,101282.09
2023-05-11T19:40:44.021Z,101284.13
2023-05-11T19:43:14.563Z,101281.41
2023-05-11T19:45:44.772Z,101279.23
2023-05-11T19:48:14.433Z,101278.69
2023-05-11T19:50:43.757Z,101281.14
2023-05-11T19:53:12.791Z,101279.52
2023-05-11T19:55:40.948Z,101278.06
2023-05-11T19:58:20.153Z,101279.44
2023-05-11T20:00:47.866Z,101278.54
2023-05-11T20:03:18.226Z,101282.73
2023-05-11T20:05:50.235Z,101282.34
2023-05-11T20:08:21.014Z,101282.48
2023-05-11T20:10:48.793Z,101281.39
2023-05-11T20:13:17.482Z,101281.52
2023-05-11T20:15:46.414Z,101277.78
2023-05-11T20:18:15.363Z,101280.91
2023-05-11T20:20:44.149Z,101279.83
2023-05-11T20:23:11.392Z,101283.50
2023-05-11T20:25:43.188Z,101281.34
2023-05-11T20:28:13.930Z,101285.55
2023-05-11T20:30:42.155Z,101287.30
2023-05-11T20:35:41.215Z,101287.08
2023-05-11T20:38:09.252Z,101289.34
2023-05-11T20:40:38.065Z,101287.20
2023-05-11T20:43:06.081Z,101283.12
2023-05-11T20:45:35.523Z,101283.06
2023-05-11T20:48:03.787Z,101291.50
2023-05-11T20:50:32.176Z,101287.77
2023-05-11T20:53:00.184Z,101289.15
2023-05-11T20:55:30.034Z,101291.40
2023-05-11T20:57:57.412Z,101290.15
2023-05-11T21:00:24.961Z,101293.25
2023-05-11T21:02:55.112Z,101294.24
2023-05-11T21:05:24.831Z,101293.11
2023-05-11T21:07:55.466Z,101290.75
2023-05-11T21:10:24.487Z,101289.66
2023-05-11T21:12:52.369Z,101289.66
2023-05-11T21:15:19.567Z,101287.34
2023-05-11T21:17:46.594Z,101288.91
2023-05-11T21:20:16.968Z,101288.17
2023-05-11T21:22:44.220Z,101291.82
2023-05-11T21:25:12.270Z,101292.27
2023-05-11T21:27:41.109Z,101291.15
2023-05-11T21:30:10.537Z,101293.91
2023-05-11T21:32:38.163Z,101295.27
2023-05-11T21:35:07.158Z,101296.84
2023-05-11T21:37:35.864Z,101297.16
2023-05-11T21:40:03.509Z,101299.05
2023-05-11T21:42:34.032Z,101297.42
2023-05-11T21:45:06.153Z,101296.31
2023-05-11T21:47:35.856Z,101294.16
2023-05-11T21:50:06.966Z,101293.42
2023-05-11T21:52:34.671Z,101294.27
2023-05-11T21:55:01.724Z,101295.63
2023-05-11T21:57:31.082Z,101294.18
2023-05-11T21:59:58.755Z,101291.47
2023-05-11T22:02:29.673Z,101292.66
2023-05-11T22:05:00.303Z,101292.45
2023-05-11T22:07:43.337Z,101292.44
2023-05-11T22:10:12.956Z,101291.69
2023-05-11T22:12:56.170Z,101292.55
2023-05-11T22:15:25.046Z,101289.55
2023-05-11T22:17:52.043Z,101291.63
2023-05-11T22:20:19.622Z,101295.48
2023-05-11T22:22:47.165Z,101294.55
2023-05-11T22:25:14.268Z,101294.70
2023-05-11T22:27:41.258Z,101295.34
2023-05-11T22:30:08.974Z,101297.39
2023-05-11T22:32:37.896Z,101295.22
2023-05-11T22:35:07.410Z,101297.26
2023-05-11T22:37:35.668Z,101295.80
2023-05-11T22:40:05.356Z,101295.77
2023-05-11T22:42:34.214Z,101297.52
2023-05-11T22:45:02.388Z,101299.45
2023-05-11T22:47:29.696Z,101293.42
2023-05-11T22:49:58.761Z,101296.44
2023-05-11T22:52:29.747Z,101293.90
2023-05-11T22:54:58.766Z,101292.80
2023-05-11T22:57:37.756Z,101292.73
2023-05-11T23:00:31.615Z,101298.27
2023-05-11T23:02:58.635Z,101296.14
2023-05-11T23:05:25.915Z,101300.01
2023-05-11T23:07:55.408Z,101304.37
2023-05-11T23:10:23.066Z,101302.02
2023-05-11T23:12:52.074Z,101307.07
2023-05-11T23:15:19.023Z,101299.07
2023-05-11T23:17:47.349Z,101297.91
2023-05-11T23:20:14.447Z,101298.87
2023-05-11T23:22:41.700Z,101297.01
2023-05-11T23:25:09.971Z,101298.13
2023-05-11T23:27:37.005Z,101297.14
2023-05-11T23:30:08.516Z,101299.48
2023-05-11T23:32:36.624Z,101298.17
2023-05-11T23:35:04.810Z,101302.86
2023-05-11T23:37:32.536Z,101304.01
2023-05-11T23:40:00.175Z,101307.05
2023-05-11T23:42:27.594Z,101304.45
2023-05-11T23:44:54.553Z,101301.14
2023-05-11T23:47:21.712Z,101302.29
2023-05-11T23:49:51.066Z,101306.31
2023-05-11T23:52:18.323Z,101307.58
2023-05-11T23:54:45.396Z,101307.70
2023-05-11T23:57:12.933Z,101311.17
2023-05-11T23:59:41.178Z,101311.46
